sensor_id;sensor_type;location;lat;lon;timestamp;pressure;altitude;pressure_sealevel;temperature;humidity
19596;BME280;9945;46.010;8.946;2023-03-26T00:01:25;96775.66;;;13.73;34.37
19596;BME280;9945;46.010;8.946;2023-03-26T00:03:54;96784.72;;;13.70;35.29
19596;BME280;9945;46.010;8.946;2023-03-26T00:06:25;96785.75;;;13.69;36.00
19596;BME280;9945;46.010;8.946;2023-03-26T00:08:54;96785.94;;;13.68;35.63
19596;BME280;9945;46.010;8.946;2023-03-26T00:11:22;96782.16;;;13.62;36.32
19596;BME280;9945;46.010;8.946;2023-03-26T00:13:50;96779.09;;;13.58;36.41
19596;BME280;9945;46.010;8.946;2023-03-26T00:16:19;96767.75;;;13.58;35.33
19596;BME280;9945;46.010;8.946;2023-03-26T00:18:46;96759.69;;;13.59;34.79
19596;BME280;9945;46.010;8.946;2023-03-26T00:21:15;96760.69;;;13.58;35.73
19596;BME280;9945;46.010;8.946;2023-03-26T00:23:44;96779.00;;;13.52;36.83
19596;BME280;9945;46.010;8.946;2023-03-26T00:26:11;96776.34;;;13.52;36.33
19596;BME280;9945;46.010;8.946;2023-03-26T00:28:40;96778.63;;;13.55;35.45
19596;BME280;9945;46.010;8.946;2023-03-26T00:31:08;96773.72;;;13.52;35.73
19596;BME280;9945;46.010;8.946;2023-03-26T00:33:36;96764.72;;;13.46;35.72
19596;BME280;9945;46.010;8.946;2023-03-26T00:36:06;96755.56;;;13.42;35.58
19596;BME280;9945;46.010;8.946;2023-03-26T00:38:35;96753.91;;;13.41;36.47
19596;BME280;9945;46.010;8.946;2023-03-26T00:41:06;96751.19;;;13.35;36.33
19596;BME280;9945;46.010;8.946;2023-03-26T00:43:43;96752.75;;;13.44;36.07
19596;BME280;9945;46.010;8.946;2023-03-26T00:46:10;96735.50;;;13.41;35.98
19596;BME280;9945;46.010;8.946;2023-03-26T00:48:37;96740.53;;;13.28;35.00
19596;BME280;9945;46.010;8.946;2023-03-26T00:51:07;96742.34;;;13.27;36.08
19596;BME280;9945;46.010;8.946;2023-03-26T00:53:34;96739.78;;;13.19;37.09
19596;BME280;9945;46.010;8.946;2023-03-26T00:56:06;96739.59;;;13.21;37.51
19596;BME280;9945;46.010;8.946;2023-03-26T00:58:33;96736.06;;;13.14;36.45
19596;BME280;9945;46.010;8.946;2023-03-26T01:01:02;96715.50;;;13.17;37.65
19596;BME280;9945;46.010;8.946;2023-03-26T01:03:31;96712.06;;;13.17;37.84
19596;BME280;9945;46.010;8.946;2023-03-26T01:06:00;96697.44;;;13.14;37.47
19596;BME280;9945;46.010;8.946;2023-03-26T01:08:34;96694.13;;;13.12;38.83
19596;BME280;9945;46.010;8.946;2023-03-26T01:11:07;96696.78;;;13.35;37.44
19596;BME280;9945;46.010;8.946;2023-03-26T01:13:40;96698.19;;;13.23;37.94
19596;BME280;9945;46.010;8.946;2023-03-26T01:16:17;96702.19;;;13.11;38.81
19596;BME280;9945;46.010;8.946;2023-03-26T01:18:46;96705.38;;;13.06;39.00
19596;BME280;9945;46.010;8.946;2023-03-26T01:21:16;96699.19;;;12.99;39.07
19596;BME280;9945;46.010;8.946;2023-03-26T01:23:55;96701.69;;;12.93;37.72
19596;BME280;9945;46.010;8.946;2023-03-26T01:26:53;96692.69;;;12.87;39.21
19596;BME280;9945;46.010;8.946;2023-03-26T01:29:32;96693.41;;;12.81;38.85
19596;BME280;9945;46.010;8.946;2023-03-26T01:32:17;96691.63;;;12.73;38.51
19596;BME280;9945;46.010;8.946;2023-03-26T01:34:58;96704.41;;;12.76;37.81
19596;BME280;9945;46.010;8.946;2023-03-26T01:37:33;96694.28;;;12.73;40.53
19596;BME280;9945;46.010;8.946;2023-03-26T01:40:08;96683.09;;;12.71;39.15
19596;BME280;9945;46.010;8.946;2023-03-26T01:42:42;96684.25;;;12.69;39.24
19596;BME280;9945;46.010;8.946;2023-03-26T01:45:14;96683.28;;;12.70;40.02
19596;BME280;9945;46.010;8.946;2023-03-26T01:47:42;96682.00;;;12.66;40.26
19596;BME280;9945;46.010;8.946;2023-03-26T01:50:09;96692.84;;;12.63;40.15
19596;BME280;9945;46.010;8.946;2023-03-26T01:52:36;96695.00;;;12.59;39.26
19596;BME280;9945;46.010;8.946;2023-03-26T01:55:06;96691.56;;;12.59;39.48
19596;BME280;9945;46.010;8.946;2023-03-26T01:57:45;96690.38;;;12.61;39.80
19596;BME280;9945;46.010;8.946;2023-03-26T02:00:22;96690.06;;;12.64;38.96
19596;BME280;9945;46.010;8.946;2023-03-26T02:03:12;96686.31;;;12.59;40.18
19596;BME280;9945;46.010;8.946;2023-03-26T02:05:49;96691.91;;;12.56;39.92
19596;BME280;9945;46.010;8.946;2023-03-26T02:08:21;96681.75;;;12.52;39.27
19596;BME280;9945;46.010;8.946;2023-03-26T02:10:53;96702.53;;;12.62;39.33
19596;BME280;9945;46.010;8.946;2023-03-26T02:13:22;96707.19;;;12.52;40.74
19596;BME280;9945;46.010;8.946;2023-03-26T02:15:57;96699.66;;;12.49;39.63
19596;BME280;9945;46.010;8.946;2023-03-26T02:18:25;96698.19;;;12.46;41.29
19596;BME280;9945;46.010;8.946;2023-03-26T02:21:02;96696.72;;;12.44;39.33
19596;BME280;9945;46.010;8.946;2023-03-26T02:23:31;96703.63;;;12.45;39.41
19596;BME280;9945;46.010;8.946;2023-03-26T02:26:04;96695.41;;;12.48;39.82
19596;BME280;9945;46.010;8.946;2023-03-26T02:28:31;96693.94;;;12.45;40.73
19596;BME280;9945;46.010;8.946;2023-03-26T02:30:58;96686.25;;;12.36;38.94
19596;BME280;9945;46.010;8.946;2023-03-26T02:33:26;96683.34;;;12.31;41.02
19596;BME280;9945;46.010;8.946;2023-03-26T02:35:53;96678.44;;;12.28;40.70
19596;BME280;9945;46.010;8.946;2023-03-26T02:38:24;96675.84;;;12.20;41.96
19596;BME280;9945;46.010;8.946;2023-03-26T02:40:52;96693.56;;;12.18;42.20
19596;BME280;9945;46.010;8.946;2023-03-26T02:43:21;96704.25;;;12.16;42.19
19596;BME280;9945;46.010;8.946;2023-03-26T02:45:48;96707.03;;;12.15;41.44
19596;BME280;9945;46.010;8.946;2023-03-26T02:48:15;96704.91;;;12.10;42.69
19596;BME280;9945;46.010;8.946;2023-03-26T02:50:42;96698.22;;;12.07;42.41
19596;BME280;9945;46.010;8.946;2023-03-26T02:53:09;96689.53;;;12.07;42.48
19596;BME280;9945;46.010;8.946;2023-03-26T02:55:36;96676.91;;;12.02;41.97
19596;BME280;9945;46.010;8.946;2023-03-26T02:58:03;96691.50;;;12.05;41.54
19596;BME280;9945;46.010;8.946;2023-03-26T03:00:32;96704.13;;;12.01;41.35
19596;BME280;9945;46.010;8.946;2023-03-26T03:02:59;96688.56;;;12.00;42.61
19596;BME280;9945;46.010;8.946;2023-03-26T03:05:29;96676.63;;;11.97;42.87
19596;BME280;9945;46.010;8.946;2023-03-26T03:07:56;96674.31;;;11.94;42.16
19596;BME280;9945;46.010;8.946;2023-03-26T03:10:23;96675.50;;;11.84;42.95
19596;BME280;9945;46.010;8.946;2023-03-26T03:12:50;96676.97;;;11.86;43.07
19596;BME280;9945;46.010;8.946;2023-03-26T03:15:17;96674.03;;;11.89;43.05
19596;BME280;9945;46.010;8.946;2023-03-26T03:17:45;96672.56;;;11.79;42.56
19596;BME280;9945;46.010;8.946;2023-03-26T03:20:12;96671.44;;;11.81;43.10
19596;BME280;9945;46.010;8.946;2023-03-26T03:22:40;96670.09;;;11.85;42.89
19596;BME280;9945;46.010;8.946;2023-03-26T03:25:08;96658.31;;;11.81;43.34
19596;BME280;9945;46.010;8.946;2023-03-26T03:27:39;96652.72;;;11.84;42.55
19596;BME280;9945;46.010;8.946;2023-03-26T03:30:08;96646.84;;;11.82;43.34
19596;BME280;9945;46.010;8.946;2023-03-26T03:32:36;96660.56;;;11.84;43.70
19596;BME280;9945;46.010;8.946;2023-03-26T03:35:06;96670.94;;;11.78;43.04
19596;BME280;9945;46.010;8.946;2023-03-26T03:37:32;96683.88;;;11.79;43.94
19596;BME280;9945;46.010;8.946;2023-03-26T03:39:59;96672.56;;;11.79;44.05
19596;BME280;9945;46.010;8.946;2023-03-26T03:42:26;96664.88;;;11.77;44.00
19596;BME280;9945;46.010;8.946;2023-03-26T03:44:53;96670.75;;;11.71;43.65
19596;BME280;9945;46.010;8.946;2023-03-26T03:47:20;96668.47;;;11.68;43.84
19596;BME280;9945;46.010;8.946;2023-03-26T03:49:47;96669.28;;;11.68;43.61
19596;BME280;9945;46.010;8.946;2023-03-26T03:52:17;96658.16;;;11.58;43.70
19596;BME280;9945;46.010;8.946;2023-03-26T03:54:44;96664.56;;;11.64;43.36
19596;BME280;9945;46.010;8.946;2023-03-26T03:57:11;96664.38;;;11.65;43.32
19596;BME280;9945;46.010;8.946;2023-03-26T03:59:38;96657.22;;;11.51;44.38
19596;BME280;9945;46.010;8.946;2023-03-26T04:02:04;96653.75;;;11.51;44.48
19596;BME280;9945;46.010;8.946;2023-03-26T04:04:31;96659.38;;;11.48;44.83
19596;BME280;9945;46.010;8.946;2023-03-26T04:06:58;96659.00;;;11.51;44.40
19596;BME280;9945;46.010;8.946;2023-03-26T04:09:27;96663.94;;;11.54;44.40
19596;BME280;9945;46.010;8.946;2023-03-26T04:11:53;96660.97;;;11.49;44.17
19596;BME280;9945;46.010;8.946;2023-03-26T04:14:20;96667.22;;;11.48;44.04
19596;BME280;9945;46.010;8.946;2023-03-26T04:16:47;96667.25;;;11.40;44.51
19596;BME280;9945;46.010;8.946;2023-03-26T04:19:14;96668.53;;;11.35;45.10
19596;BME280;9945;46.010;8.946;2023-03-26T04:21:41;96664.13;;;11.36;44.61
19596;BME280;9945;46.010;8.946;2023-03-26T04:24:08;96664.59;;;11.31;44.60
19596;BME280;9945;46.010;8.946;2023-03-26T04:26:36;96655.28;;;11.29;44.81
19596;BME280;9945;46.010;8.946;2023-03-26T04:29:05;96652.34;;;11.24;44.16
19596;BME280;9945;46.010;8.946;2023-03-26T04:31:37;96654.13;;;11.23;44.46
19596;BME280;9945;46.010;8.946;2023-03-26T04:34:06;96656.28;;;11.12;44.88
19596;BME280;9945;46.010;8.946;2023-03-26T04:36:38;96655.31;;;11.13;45.27
19596;BME280;9945;46.010;8.946;2023-03-26T04:39:09;96662.81;;;11.08;45.25
19596;BME280;9945;46.010;8.946;2023-03-26T04:41:38;96659.06;;;11.02;45.54
19596;BME280;9945;46.010;8.946;2023-03-26T04:44:05;96656.78;;;11.07;45.53
19596;BME280;9945;46.010;8.946;2023-03-26T04:46:32;96660.22;;;11.08;45.06
19596;BME280;9945;46.010;8.946;2023-03-26T04:48:59;96657.75;;;11.06;45.56
19596;BME280;9945;46.010;8.946;2023-03-26T04:51:32;96653.03;;;11.02;45.86
19596;BME280;9945;46.010;8.946;2023-03-26T04:54:03;96660.56;;;10.96;45.73
19596;BME280;9945;46.010;8.946;2023-03-26T04:56:41;96664.00;;;11.05;45.65
19596;BME280;9945;46.010;8.946;2023-03-26T04:59:21;96671.50;;;11.08;45.56
19596;BME280;9945;46.010;8.946;2023-03-26T05:01:50;96668.88;;;11.08;45.32
19596;BME280;9945;46.010;8.946;2023-03-26T05:04:17;96676.09;;;10.98;45.19
19596;BME280;9945;46.010;8.946;2023-03-26T05:06:44;96677.88;;;10.97;44.87
19596;BME280;9945;46.010;8.946;2023-03-26T05:09:11;96674.13;;;11.00;45.61
19596;BME280;9945;46.010;8.946;2023-03-26T05:11:38;96672.34;;;11.09;45.38
19596;BME280;9945;46.010;8.946;2023-03-26T05:14:07;96681.84;;;11.10;45.43
19596;BME280;9945;46.010;8.946;2023-03-26T05:16:35;96675.09;;;11.15;45.22
19596;BME280;9945;46.010;8.946;2023-03-26T05:19:03;96671.50;;;11.16;45.45
19596;BME280;9945;46.010;8.946;2023-03-26T05:21:31;96667.09;;;11.17;45.27
19596;BME280;9945;46.010;8.946;2023-03-26T05:23:58;96670.03;;;11.22;45.66
19596;BME280;9945;46.010;8.946;2023-03-26T05:26:25;96672.81;;;11.20;45.72
19596;BME280;9945;46.010;8.946;2023-03-26T05:28:51;96673.00;;;11.11;46.21
19596;BME280;9945;46.010;8.946;2023-03-26T05:31:20;96668.72;;;11.10;46.46
19596;BME280;9945;46.010;8.946;2023-03-26T05:33:47;96659.91;;;11.11;46.67
19596;BME280;9945;46.010;8.946;2023-03-26T05:36:15;96648.28;;;11.13;46.44
19596;BME280;9945;46.010;8.946;2023-03-26T05:38:44;96645.66;;;11.05;46.86
19596;BME280;9945;46.010;8.946;2023-03-26T05:41:14;96637.00;;;11.05;46.77
19596;BME280;9945;46.010;8.946;2023-03-26T05:43:41;96630.59;;;10.99;45.98
19596;BME280;9945;46.010;8.946;2023-03-26T05:46:09;96636.31;;;11.03;45.92
19596;BME280;9945;46.010;8.946;2023-03-26T05:48:37;96628.47;;;11.11;46.84
19596;BME280;9945;46.010;8.946;2023-03-26T05:51:05;96634.00;;;11.16;46.67
19596;BME280;9945;46.010;8.946;2023-03-26T05:53:32;96625.47;;;11.30;47.10
19596;BME280;9945;46.010;8.946;2023-03-26T05:55:59;96621.06;;;11.30;47.06
19596;BME280;9945;46.010;8.946;2023-03-26T05:58:27;96629.09;;;11.29;47.66
19596;BME280;9945;46.010;8.946;2023-03-26T06:00:56;96645.63;;;11.29;47.74
19596;BME280;9945;46.010;8.946;2023-03-26T06:03:24;96645.63;;;11.29;48.52
19596;BME280;9945;46.010;8.946;2023-03-26T06:05:52;96647.56;;;11.35;47.86
19596;BME280;9945;46.010;8.946;2023-03-26T06:08:19;96635.78;;;11.48;47.63
19596;BME280;9945;46.010;8.946;2023-03-26T06:10:46;96642.63;;;11.57;47.21
19596;BME280;9945;46.010;8.946;2023-03-26T06:13:14;96635.72;;;11.64;48.04
19596;BME280;9945;46.010;8.946;2023-03-26T06:15:42;96650.78;;;11.70;49.61
19596;BME280;9945;46.010;8.946;2023-03-26T06:18:09;96658.78;;;11.85;50.22
19596;BME280;9945;46.010;8.946;2023-03-26T06:20:35;96666.56;;;12.01;49.00
19596;BME280;9945;46.010;8.946;2023-03-26T06:23:04;96670.31;;;12.15;48.67
19596;BME280;9945;46.010;8.946;2023-03-26T06:25:30;96665.53;;;12.18;48.67
19596;BME280;9945;46.010;8.946;2023-03-26T06:27:57;96666.94;;;12.29;48.05
19596;BME280;9945;46.010;8.946;2023-03-26T06:30:24;96665.06;;;12.45;48.56
19596;BME280;9945;46.010;8.946;2023-03-26T06:32:51;96657.56;;;12.65;46.47
19596;BME280;9945;46.010;8.946;2023-03-26T06:35:18;96659.06;;;12.82;48.51
19596;BME280;9945;46.010;8.946;2023-03-26T06:37:45;96664.38;;;12.97;47.01
19596;BME280;9945;46.010;8.946;2023-03-26T06:40:13;96661.78;;;13.12;47.73
19596;BME280;9945;46.010;8.946;2023-03-26T06:42:40;96664.75;;;13.32;46.80
19596;BME280;9945;46.010;8.946;2023-03-26T06:45:08;96660.72;;;13.58;46.33
19596;BME280;9945;46.010;8.946;2023-03-26T06:47:35;96674.69;;;13.88;46.98
19596;BME280;9945;46.010;8.946;2023-03-26T06:50:03;96670.97;;;13.97;46.02
19596;BME280;9945;46.010;8.946;2023-03-26T06:52:30;96667.84;;;14.23;47.02
19596;BME280;9945;46.010;8.946;2023-03-26T06:54:57;96669.84;;;14.36;45.43
19596;BME280;9945;46.010;8.946;2023-03-26T06:57:25;96669.38;;;14.47;43.76
19596;BME280;9945;46.010;8.946;2023-03-26T06:59:52;96675.06;;;14.65;44.82
19596;BME280;9945;46.010;8.946;2023-03-26T07:02:19;96669.06;;;14.93;43.06
19596;BME280;9945;46.010;8.946;2023-03-26T07:04:46;96676.38;;;14.97;42.80
19596;BME280;9945;46.010;8.946;2023-03-26T07:07:13;96677.34;;;15.11;43.85
19596;BME280;9945;46.010;8.946;2023-03-26T07:09:40;96675.44;;;15.26;43.00
19596;BME280;9945;46.010;8.946;2023-03-26T07:12:06;96676.97;;;15.42;41.01
19596;BME280;9945;46.010;8.946;2023-03-26T07:14:35;96667.00;;;15.65;40.78
19596;BME280;9945;46.010;8.946;2023-03-26T07:17:03;96671.75;;;15.76;39.69
19596;BME280;9945;46.010;8.946;2023-03-26T07:19:30;96661.78;;;15.72;39.91
19596;BME280;9945;46.010;8.946;2023-03-26T07:21:57;96654.72;;;15.79;39.47
19596;BME280;9945;46.010;8.946;2023-03-26T07:24:25;96651.44;;;15.70;37.91
19596;BME280;9945;46.010;8.946;2023-03-26T07:26:55;96652.59;;;15.61;38.48
19596;BME280;9945;46.010;8.946;2023-03-26T07:29:33;96644.66;;;15.61;36.97
19596;BME280;9945;46.010;8.946;2023-03-26T07:32:08;96640.50;;;15.73;38.33
19596;BME280;9945;46.010;8.946;2023-03-26T07:34:49;96628.16;;;15.87;38.03
19596;BME280;9945;46.010;8.946;2023-03-26T07:37:28;96620.69;;;15.91;37.79
19596;BME280;9945;46.010;8.946;2023-03-26T07:40:00;96604.44;;;15.94;37.10
19596;BME280;9945;46.010;8.946;2023-03-26T07:42:39;96561.81;;;15.97;37.82
19596;BME280;9945;46.010;8.946;2023-03-26T07:45:16;96558.19;;;16.11;36.91
19596;BME280;9945;46.010;8.946;2023-03-26T07:47:47;96564.53;;;16.23;36.23
19596;BME280;9945;46.010;8.946;2023-03-26T07:50:20;96555.81;;;16.42;37.29
19596;BME280;9945;46.010;8.946;2023-03-26T07:52:48;96560.69;;;16.45;37.64
19596;BME280;9945;46.010;8.946;2023-03-26T07:55:16;96571.09;;;16.47;37.46
19596;BME280;9945;46.010;8.946;2023-03-26T07:57:51;96563.53;;;16.37;36.18
19596;BME280;9945;46.010;8.946;2023-03-26T08:00:21;96575.16;;;16.49;37.18
19596;BME280;9945;46.010;8.946;2023-03-26T08:05:49;96582.53;;;16.74;36.90
19596;BME280;9945;46.010;8.946;2023-03-26T08:08:23;96587.44;;;16.83;36.35
19596;BME280;9945;46.010;8.946;2023-03-26T08:11:04;96597.38;;;16.88;35.27
19596;BME280;9945;46.010;8.946;2023-03-26T08:13:51;96593.94;;;17.07;33.99
19596;BME280;9945;46.010;8.946;2023-03-26T08:16:24;96577.88;;;16.82;36.46
19596;BME280;9945;46.010;8.946;2023-03-26T08:19:01;96570.94;;;16.94;35.22
19596;BME280;9945;46.010;8.946;2023-03-26T08:21:34;96569.72;;;16.77;36.72
19596;BME280;9945;46.010;8.946;2023-03-26T08:24:09;96566.25;;;16.70;35.91
19596;BME280;9945;46.010;8.946;2023-03-26T08:26:42;96571.75;;;16.69;36.25
19596;BME280;9945;46.010;8.946;2023-03-26T08:29:19;96566.25;;;16.63;36.13
19596;BME280;9945;46.010;8.946;2023-03-26T08:31:49;96551.63;;;16.81;35.56
19596;BME280;9945;46.010;8.946;2023-03-26T08:34:17;96562.19;;;16.94;33.07
19596;BME280;9945;46.010;8.946;2023-03-26T08:36:44;96557.69;;;17.27;33.86
19596;BME280;9945;46.010;8.946;2023-03-26T08:39:12;96554.19;;;17.47;32.67
19596;BME280;9945;46.010;8.946;2023-03-26T08:42:06;96548.06;;;17.59;32.46
19596;BME280;9945;46.010;8.946;2023-03-26T08:45:10;96532.59;;;17.63;34.47
19596;BME280;9945;46.010;8.946;2023-03-26T08:48:05;96530.94;;;17.75;33.00
19596;BME280;9945;46.010;8.946;2023-03-26T08:51:02;96535.44;;;18.12;32.34
19596;BME280;9945;46.010;8.946;2023-03-26T08:56:51;96530.44;;;18.92;31.42
19596;BME280;9945;46.010;8.946;2023-03-26T09:00:02;96537.50;;;18.98;31.26
19596;BME280;9945;46.010;8.946;2023-03-26T09:03:01;96544.72;;;19.16;30.52
19596;BME280;9945;46.010;8.946;2023-03-26T09:05:44;96546.78;;;19.14;30.38
19596;BME280;9945;46.010;8.946;2023-03-26T09:08:59;96537.91;;;19.02;30.25
19596;BME280;9945;46.010;8.946;2023-03-26T09:21:28;96475.28;;;18.76;30.33
19596;BME280;9945;46.010;8.946;2023-03-26T09:27:20;96493.19;;;18.80;30.25
19596;BME280;9945;46.010;8.946;2023-03-26T09:30:26;96490.03;;;18.65;31.84
19596;BME280;9945;46.010;8.946;2023-03-26T09:33:27;96506.31;;;18.44;31.78
19596;BME280;9945;46.010;8.946;2023-03-26T09:36:18;96516.41;;;18.22;31.07
19596;BME280;9945;46.010;8.946;2023-03-26T09:38:51;96519.78;;;18.04;31.54
19596;BME280;9945;46.010;8.946;2023-03-26T09:41:31;96513.94;;;17.89;31.71
19596;BME280;9945;46.010;8.946;2023-03-26T09:44:20;96524.63;;;17.69;33.17
19596;BME280;9945;46.010;8.946;2023-03-26T09:49:48;96516.91;;;17.55;35.58
19596;BME280;9945;46.010;8.946;2023-03-26T09:52:40;96516.94;;;17.48;34.60
19596;BME280;9945;46.010;8.946;2023-03-26T09:55:41;96500.88;;;17.36;34.38
19596;BME280;9945;46.010;8.946;2023-03-26T09:58:28;96505.16;;;17.31;33.21
19596;BME280;9945;46.010;8.946;2023-03-26T10:01:04;96504.97;;;17.32;34.79
19596;BME280;9945;46.010;8.946;2023-03-26T10:03:41;96503.38;;;17.12;34.01
19596;BME280;9945;46.010;8.946;2023-03-26T10:06:35;96493.00;;;17.03;34.55
19596;BME280;9945;46.010;8.946;2023-03-26T10:09:21;96494.44;;;17.06;33.43
19596;BME280;9945;46.010;8.946;2023-03-26T10:12:09;96481.44;;;16.98;35.10
19596;BME280;9945;46.010;8.946;2023-03-26T10:14:42;96478.97;;;17.03;34.57
19596;BME280;9945;46.010;8.946;2023-03-26T10:17:30;96449.69;;;16.85;36.61
19596;BME280;9945;46.010;8.946;2023-03-26T10:20:24;96452.34;;;16.98;38.03
19596;BME280;9945;46.010;8.946;2023-03-26T10:23:03;96450.31;;;16.93;36.45
19596;BME280;9945;46.010;8.946;2023-03-26T10:25:42;96450.50;;;17.05;37.75
19596;BME280;9945;46.010;8.946;2023-03-26T10:28:24;96447.25;;;17.10;37.43
19596;BME280;9945;46.010;8.946;2023-03-26T10:33:59;96445.72;;;17.33;36.67
19596;BME280;9945;46.010;8.946;2023-03-26T10:36:33;96445.66;;;17.47;36.52
19596;BME280;9945;46.010;8.946;2023-03-26T10:39:29;96455.41;;;17.53;38.13
19596;BME280;9945;46.010;8.946;2023-03-26T10:42:10;96452.91;;;17.71;37.06
19596;BME280;9945;46.010;8.946;2023-03-26T10:44:54;96450.16;;;17.91;36.57
19596;BME280;9945;46.010;8.946;2023-03-26T10:47:37;96429.53;;;17.99;37.79
19596;BME280;9945;46.010;8.946;2023-03-26T10:50:22;96408.22;;;18.19;38.04
19596;BME280;9945;46.010;8.946;2023-03-26T10:52:53;96401.38;;;18.54;37.28
19596;BME280;9945;46.010;8.946;2023-03-26T10:55:28;96396.69;;;18.57;36.99
19596;BME280;9945;46.010;8.946;2023-03-26T10:57:59;96401.81;;;18.76;36.94
19596;BME280;9945;46.010;8.946;2023-03-26T11:00:36;96388.56;;;18.95;36.57
19596;BME280;9945;46.010;8.946;2023-03-26T11:03:21;96395.41;;;18.84;36.41
19596;BME280;9945;46.010;8.946;2023-03-26T11:05:58;96390.97;;;18.60;37.22
19596;BME280;9945;46.010;8.946;2023-03-26T11:08:34;96390.63;;;18.49;37.29
19596;BME280;9945;46.010;8.946;2023-03-26T11:11:10;96396.06;;;18.30;36.89
19596;BME280;9945;46.010;8.946;2023-03-26T11:13:46;96391.84;;;18.22;37.04
19596;BME280;9945;46.010;8.946;2023-03-26T11:16:23;96400.88;;;17.90;37.72
19596;BME280;9945;46.010;8.946;2023-03-26T11:18:57;96397.75;;;17.68;37.89
19596;BME280;9945;46.010;8.946;2023-03-26T11:21:32;96394.34;;;17.48;38.62
19596;BME280;9945;46.010;8.946;2023-03-26T11:24:18;96381.44;;;17.26;40.46
19596;BME280;9945;46.010;8.946;2023-03-26T11:26:50;96390.22;;;17.14;39.03
19596;BME280;9945;46.010;8.946;2023-03-26T11:29:30;96392.22;;;17.18;40.83
19596;BME280;9945;46.010;8.946;2023-03-26T11:32:04;96380.53;;;16.94;41.32
19596;BME280;9945;46.010;8.946;2023-03-26T11:34:34;96384.03;;;16.82;42.57
19596;BME280;9945;46.010;8.946;2023-03-26T11:37:11;96373.28;;;16.70;41.73
19596;BME280;9945;46.010;8.946;2023-03-26T11:39:44;96369.81;;;16.56;44.02
19596;BME280;9945;46.010;8.946;2023-03-26T11:42:15;96374.09;;;16.44;45.10
19596;BME280;9945;46.010;8.946;2023-03-26T11:44:48;96378.16;;;16.47;46.29
19596;BME280;9945;46.010;8.946;2023-03-26T11:47:20;96382.66;;;16.20;47.44
19596;BME280;9945;46.010;8.946;2023-03-26T11:49:50;96381.00;;;16.25;48.36
19596;BME280;9945;46.010;8.946;2023-03-26T11:52:20;96401.16;;;16.13;49.98
19596;BME280;9945;46.010;8.946;2023-03-26T11:54:47;96400.31;;;15.73;49.48
19596;BME280;9945;46.010;8.946;2023-03-26T11:57:18;96406.97;;;15.76;49.80
19596;BME280;9945;46.010;8.946;2023-03-26T11:59:51;96406.34;;;15.54;51.64
19596;BME280;9945;46.010;8.946;2023-03-26T12:02:25;96402.03;;;15.53;54.27
19596;BME280;9945;46.010;8.946;2023-03-26T12:07:52;96401.13;;;15.26;57.37
19596;BME280;9945;46.010;8.946;2023-03-26T12:10:25;96400.38;;;15.39;59.46
19596;BME280;9945;46.010;8.946;2023-03-26T12:12:54;96395.13;;;15.45;59.55
19596;BME280;9945;46.010;8.946;2023-03-26T12:15:23;96393.91;;;15.48;57.47
19596;BME280;9945;46.010;8.946;2023-03-26T12:17:52;96392.06;;;15.48;54.49
19596;BME280;9945;46.010;8.946;2023-03-26T12:20:31;96379.88;;;15.41;54.56
19596;BME280;9945;46.010;8.946;2023-03-26T12:23:01;96378.88;;;15.48;55.34
19596;BME280;9945;46.010;8.946;2023-03-26T12:25:30;96363.25;;;15.47;57.20
19596;BME280;9945;46.010;8.946;2023-03-26T12:27:59;96367.91;;;15.45;55.20
19596;BME280;9945;46.010;8.946;2023-03-26T12:30:28;96360.88;;;15.65;54.01
19596;BME280;9945;46.010;8.946;2023-03-26T12:33:00;96356.34;;;15.46;52.84
19596;BME280;9945;46.010;8.946;2023-03-26T12:35:30;96351.84;;;15.40;52.32
19596;BME280;9945;46.010;8.946;2023-03-26T12:38:18;96341.16;;;15.48;56.44
19596;BME280;9945;46.010;8.946;2023-03-26T12:40:48;96347.84;;;15.50;61.06
19596;BME280;9945;46.010;8.946;2023-03-26T12:43:28;96344.78;;;15.47;64.58
19596;BME280;9945;46.010;8.946;2023-03-26T12:45:57;96340.09;;;15.36;65.78
19596;BME280;9945;46.010;8.946;2023-03-26T12:48:24;96335.41;;;15.31;66.55
19596;BME280;9945;46.010;8.946;2023-03-26T12:51:05;96332.13;;;15.16;67.11
19596;BME280;9945;46.010;8.946;2023-03-26T12:53:55;96327.63;;;15.03;67.81
19596;BME280;9945;46.010;8.946;2023-03-26T12:56:29;96320.75;;;15.09;68.13
19596;BME280;9945;46.010;8.946;2023-03-26T12:59:11;96314.88;;;15.13;67.54
19596;BME280;9945;46.010;8.946;2023-03-26T13:01:47;96329.81;;;14.93;67.88
19596;BME280;9945;46.010;8.946;2023-03-26T13:04:39;96313.69;;;14.68;70.14
19596;BME280;9945;46.010;8.946;2023-03-26T13:07:16;96313.88;;;14.67;70.11
19596;BME280;9945;46.010;8.946;2023-03-26T13:10:22;96305.53;;;14.57;71.49
19596;BME280;9945;46.010;8.946;2023-03-26T13:13:01;96309.38;;;14.54;73.50
19596;BME280;9945;46.010;8.946;2023-03-26T13:15:37;96295.34;;;14.47;75.29
19596;BME280;9945;46.010;8.946;2023-03-26T13:18:17;96297.56;;;14.44;78.77
19596;BME280;9945;46.010;8.946;2023-03-26T13:20:49;96310.75;;;14.22;81.80
19596;BME280;9945;46.010;8.946;2023-03-26T13:23:29;96308.44;;;14.06;83.79
19596;BME280;9945;46.010;8.946;2023-03-26T13:26:09;96305.25;;;14.11;82.97
19596;BME280;9945;46.010;8.946;2023-03-26T13:28:42;96298.34;;;14.10;82.31
19596;BME280;9945;46.010;8.946;2023-03-26T13:31:18;96302.34;;;14.06;82.63
19596;BME280;9945;46.010;8.946;2023-03-26T13:33:54;96298.19;;;13.90;85.00
19596;BME280;9945;46.010;8.946;2023-03-26T13:36:31;96290.59;;;13.74;86.28
19596;BME280;9945;46.010;8.946;2023-03-26T13:39:12;96281.44;;;13.70;85.41
19596;BME280;9945;46.010;8.946;2023-03-26T13:41:54;96272.41;;;13.79;85.27
19596;BME280;9945;46.010;8.946;2023-03-26T13:44:32;96264.19;;;13.60;86.43
19596;BME280;9945;46.010;8.946;2023-03-26T13:47:07;96265.78;;;13.61;85.19
19596;BME280;9945;46.010;8.946;2023-03-26T13:49:39;96247.91;;;13.50;86.55
19596;BME280;9945;46.010;8.946;2023-03-26T13:52:09;96234.50;;;13.45;86.05
19596;BME280;9945;46.010;8.946;2023-03-26T13:54:42;96221.81;;;13.49;80.85
19596;BME280;9945;46.010;8.946;2023-03-26T13:57:19;96224.47;;;13.55;72.90
19596;BME280;9945;46.010;8.946;2023-03-26T13:59:52;96222.41;;;13.79;73.34
19596;BME280;9945;46.010;8.946;2023-03-26T14:02:26;96223.06;;;13.87;67.54
19596;BME280;9945;46.010;8.946;2023-03-26T14:05:00;96228.16;;;13.89;68.31
19596;BME280;9945;46.010;8.946;2023-03-26T14:07:33;96226.44;;;14.02;67.17
19596;BME280;9945;46.010;8.946;2023-03-26T14:10:07;96208.97;;;13.95;67.85